Time;durP1;ratioP1;P1;durP2;ratioP2;P2;SDS_P1;SDS_P2;PMS_P1;PMS_P2;Temp;Humidity;BMP_temperature;BMP_pressure;BME280_temperature;BME280_humidity;BME280_pressure;Samples;Min_cycle;Max_cycle;Signal;HPM_P1;HPM_P2
2023/06/05 00:00:32;;;;;;;2.35;1.75;;;;;;;17.67;87.48;100210.94;5103781;28;20131;-85
2023/06/05 00:02:59;;;;;;;3.28;2.47;;;;;;;17.72;86.68;100220.53;5101914;28;20028;-85
2023/06/05 00:05:26;;;;;;;3.33;1.85;;;;;;;17.78;86.24;100223.88;5110700;28;20089;-85
2023/06/05 00:07:54;;;;;;;3.50;2.05;;;;;;;17.44;86.30;100187.75;5085571;28;20457;-85
2023/06/05 00:10:20;;;;;;;1.80;1.00;;;;;;;17.15;86.98;100174.53;5090995;28;20028;-85
2023/06/05 00:12:45;;;;;;;1.77;1.23;;;;;;;17.29;87.44;100211.38;5091244;28;20413;-85
2023/06/05 00:15:11;;;;;;;1.58;1.48;;;;;;;17.24;86.75;100191.13;5090024;28;20024;-85
2023/06/05 00:17:37;;;;;;;4.10;2.70;;;;;;;17.36;86.35;100215.59;5089904;28;20032;-86
2023/06/05 00:20:03;;;;;;;1.95;1.10;;;;;;;16.99;86.63;100159.97;5091137;28;20089;-85
2023/06/05 00:22:31;;;;;;;2.50;1.90;;;;;;;17.04;86.20;100166.03;5099911;28;20046;-84
2023/06/05 00:24:57;;;;;;;10.70;1.33;;;;;;;16.92;86.36;100177.13;5110349;28;20024;-84
2023/06/05 00:27:23;;;;;;;0.63;0.55;;;;;;;16.72;87.41;100175.09;5110044;28;20122;-85
2023/06/05 00:29:49;;;;;;;1.40;1.17;;;;;;;16.65;88.24;100187.72;5090019;28;20093;-84
2023/06/05 00:32:15;;;;;;;1.05;0.85;;;;;;;16.60;88.88;100194.97;5110331;28;20032;-85
2023/06/05 00:34:40;;;;;;;2.13;1.92;;;;;;;16.35;89.67;100165.63;5110250;28;20350;-84
2023/06/05 00:37:06;;;;;;;1.70;1.40;;;;;;;15.93;90.74;100121.66;5088693;28;20036;-84
2023/06/05 00:39:32;;;;;;;5.25;1.08;;;;;;;16.25;91.62;100178.31;5108183;28;20066;-84
2023/06/05 00:41:58;;;;;;;0.70;0.70;;;;;;;16.28;90.90;100163.13;5107176;28;20153;-85
2023/06/05 00:44:24;;;;;;;2.13;1.15;;;;;;;16.47;89.86;100189.19;5090582;28;20127;-84
2023/06/05 00:46:52;;;;;;;3.10;1.48;;;;;;;16.61;89.04;100186.09;5091433;28;20032;-84
2023/06/05 00:49:18;;;;;;;3.80;2.03;;;;;;;16.64;88.79;100200.16;5109780;28;20064;-84
2023/06/05 00:51:45;;;;;;;2.03;1.40;;;;;;;16.37;89.79;100175.28;5108074;28;20042;-84
2023/06/05 00:54:13;;;;;;;1.10;0.95;;;;;;;16.35;88.93;100157.63;5091213;28;20042;-84
2023/06/05 00:56:42;;;;;;;1.75;1.17;;;;;;;16.38;89.67;100181.50;5109940;28;20036;-85
2023/06/05 00:59:08;;;;;;;1.00;0.90;;;;;;;16.43;89.97;100203.50;5109639;28;20031;-85
2023/06/05 01:01:34;;;;;;;2.80;1.35;;;;;;;16.37;88.89;100171.75;5113597;28;20031;-84
2023/06/05 01:04:00;;;;;;;1.77;0.75;;;;;;;16.21;88.62;100150.94;5093070;28;20952;-86
2023/06/05 01:06:28;;;;;;;2.35;1.15;;;;;;;16.43;88.37;100198.19;5113052;28;20035;-85
2023/06/05 01:08:56;;;;;;;1.98;1.23;;;;;;;16.63;87.98;100192.22;5093457;28;20184;-85
2023/06/05 01:11:28;;;;;;;4.38;1.52;;;;;;;16.64;87.64;100199.31;5089504;28;20150;-85
2023/06/05 01:14:07;;;;;;;1.30;1.00;;;;;;;16.39;87.62;100151.25;5093828;28;20024;-84
2023/06/05 01:16:34;;;;;;;1.52;1.35;;;;;;;16.31;88.46;100180.78;5113727;28;20034;-85
2023/06/05 01:19:03;;;;;;;1.45;1.05;;;;;;;16.15;88.89;100168.88;5113849;28;20139;-85
2023/06/05 01:21:32;;;;;;;0.85;0.85;;;;;;;16.59;87.82;100218.09;5095259;28;20423;-85
2023/06/05 01:24:01;;;;;;;2.67;1.65;;;;;;;16.50;86.90;100183.75;5111932;28;20186;-85
2023/06/05 01:26:40;;;;;;;0.77;0.77;;;;;;;16.32;88.04;100187.00;5113404;28;20036;-85
2023/06/05 01:29:11;;;;;;;1.65;0.90;;;;;;;16.20;88.37;100196.22;5113068;28;20088;-85
2023/06/05 01:31:39;;;;;;;1.30;0.85;;;;;;;16.00;87.91;100170.22;5113684;28;20365;-84
2023/06/05 01:34:11;;;;;;;0.80;0.80;;;;;;;15.86;88.11;100147.53;5098412;28;20051;-85
2023/06/05 01:36:38;;;;;;;2.65;1.45;;;;;;;16.00;86.63;100164.88;5075788;28;20027;-85
2023/06/05 01:39:05;;;;;;;1.48;0.90;;;;;;;16.00;86.60;100173.72;5113137;28;20071;-84
2023/06/05 01:41:30;;;;;;;0.65;0.65;;;;;;;16.18;85.42;100188.28;5102268;28;20030;-84
2023/06/05 01:43:56;;;;;;;2.00;1.60;;;;;;;16.00;84.55;100154.25;5113396;28;20040;-84
2023/06/05 01:46:22;;;;;;;3.20;1.55;;;;;;;16.23;83.50;100191.66;5094147;28;20036;-84
2023/06/05 01:48:50;;;;;;;1.25;0.75;;;;;;;16.25;82.30;100181.88;5100967;28;20136;-84
2023/06/05 01:51:15;;;;;;;1.70;1.13;;;;;;;16.37;82.47;100204.56;5093772;28;20417;-84
2023/06/05 01:53:41;;;;;;;3.53;2.42;;;;;;;16.36;81.78;100196.63;5092953;28;20032;-84
2023/06/05 01:56:08;;;;;;;0.95;0.68;;;;;;;16.19;81.11;100179.38;5092878;28;20032;-84
2023/06/05 01:58:33;;;;;;;2.50;1.20;;;;;;;16.09;80.82;100185.91;5092818;28;20089;-84
2023/06/05 02:00:59;;;;;;;9.35;1.33;;;;;;;16.07;81.07;100190.41;5092223;28;20035;-85
2023/06/05 02:03:25;;;;;;;4.38;0.98;;;;;;;16.01;81.89;100191.44;5094004;28;20124;-84
2023/06/05 02:05:54;;;;;;;1.48;1.15;;;;;;;16.11;82.32;100216.88;5092655;28;20114;-84
2023/06/05 02:08:22;;;;;;;1.45;1.17;;;;;;;16.14;82.14;100205.25;5092499;28;20032;-84
2023/06/05 02:10:52;;;;;;;1.50;1.13;;;;;;;16.33;81.66;100229.53;5091863;28;20082;-84
2023/06/05 02:13:24;;;;;;;1.70;1.60;;;;;;;16.44;81.12;100230.09;5092832;28;20111;-84
2023/06/05 02:15:55;;;;;;;2.28;1.38;;;;;;;16.49;80.57;100208.63;5073736;28;20118;-84
2023/06/05 02:18:24;;;;;;;0.82;0.80;;;;;;;16.43;80.61;100195.50;5106108;28;20504;-84
2023/06/05 02:20:55;;;;;;;5.68;2.38;;;;;;;16.49;80.92;100215.78;5112697;28;20039;-84
2023/06/05 02:23:20;;;;;;;2.95;1.13;;;;;;;16.37;80.63;100190.38;5092070;28;20517;-85
2023/06/05 02:25:46;;;;;;;4.47;1.50;;;;;;;16.43;80.05;100191.06;5112469;28;20119;-85
2023/06/05 02:28:11;;;;;;;0.75;0.75;;;;;;;16.60;79.73;100221.63;5111793;28;20050;-84
2023/06/05 02:30:37;;;;;;;1.70;1.20;;;;;;;16.45;79.88;100239.81;5112306;28;20047;-84
2023/06/05 02:33:03;;;;;;;0.80;0.80;;;;;;;16.29;79.62;100202.13;5099558;28;20028;-84
2023/06/05 02:35:29;;;;;;;1.45;1.30;;;;;;;16.29;79.83;100238.53;5092737;28;20465;-84
2023/06/05 02:37:56;;;;;;;2.00;1.80;;;;;;;16.35;79.77;100238.34;5091526;28;20040;-84
2023/06/05 02:40:22;;;;;;;10.55;1.50;;;;;;;16.23;79.49;100209.44;5092213;28;20032;-85
2023/06/05 02:42:47;;;;;;;2.13;0.98;;;;;;;16.44;79.14;100234.53;5102693;28;20116;-85
2023/06/05 02:45:13;;;;;;;4.18;1.65;;;;;;;16.31;78.75;100231.38;5110800;28;20558;-85
2023/06/05 02:47:38;;;;;;;2.40;1.23;;;;;;;16.11;79.18;100200.03;5112068;28;20114;-85
2023/06/05 02:50:06;;;;;;;0.52;0.52;;;;;;;16.15;79.40;100214.13;5111255;28;20126;-85
2023/06/05 02:52:35;;;;;;;1.15;1.05;;;;;;;16.29;78.73;100217.25;5112341;28;20108;-85
2023/06/05 02:55:02;;;;;;;1.08;0.77;;;;;;;16.26;78.39;100209.34;5109766;28;20043;-86
2023/06/05 02:57:27;;;;;;;2.20;1.42;;;;;;;16.53;78.25;100244.03;5095234;28;20076;-85
2023/06/05 02:59:55;;;;;;;1.83;1.50;;;;;;;16.25;78.61;100204.94;5091028;28;20448;-85
2023/06/05 03:02:22;;;;;;;6.65;1.83;;;;;;;16.45;78.49;100238.94;5091250;28;20024;-85
2023/06/05 03:04:55;;;;;;;1.15;0.75;;;;;;;16.39;78.87;100239.13;5090325;28;20075;-83
2023/06/05 03:07:22;;;;;;;1.52;1.42;;;;;;;16.42;79.07;100239.91;5091553;28;20552;-82
2023/06/05 03:09:48;;;;;;;1.48;1.30;;;;;;;16.27;78.23;100197.78;5089896;28;20028;-83
2023/06/05 03:12:13;;;;;;;3.38;1.45;;;;;;;16.29;78.45;100195.94;5090495;28;20035;-82
2023/06/05 03:14:39;;;;;;;19.42;1.33;;;;;;;16.37;78.44;100211.69;5089847;28;20032;-82
2023/06/05 03:17:05;;;;;;;3.03;1.35;;;;;;;16.50;78.18;100234.34;5106646;28;20032;-83
2023/06/05 03:19:30;;;;;;;0.98;0.90;;;;;;;16.59;78.58;100238.50;5110425;28;20055;-82
2023/06/05 03:21:56;;;;;;;1.35;0.88;;;;;;;16.50;78.15;100210.41;5110377;28;20016;-82
2023/06/05 03:24:24;;;;;;;0.98;0.90;;;;;;;16.68;78.18;100235.56;5109599;28;20023;-83
2023/06/05 03:26:50;;;;;;;4.88;2.15;;;;;;;16.47;78.21;100194.50;5108900;28;20110;-82
2023/06/05 03:29:15;;;;;;;2.60;1.05;;;;;;;16.75;78.02;100233.59;5110204;28;20122;-84
2023/06/05 03:31:42;;;;;;;1.42;1.33;;;;;;;16.40;78.35;100199.13;5092594;28;20034;-84
2023/06/05 03:34:08;;;;;;;3.42;1.77;;;;;;;16.64;78.35;100216.16;5092775;27;20091;-84
2023/06/05 03:36:34;;;;;;;4.45;3.55;;;;;;;16.80;77.45;100215.66;5099095;28;20115;-84
2023/06/05 03:39:00;;;;;;;7.55;1.17;;;;;;;16.96;77.26;100229.38;5089754;28;20055;-84
2023/06/05 03:41:25;;;;;;;2.05;0.80;;;;;;;16.77;77.69;100203.28;5097697;28;20028;-85
2023/06/05 03:43:51;;;;;;;5.05;2.35;;;;;;;16.78;78.13;100213.03;5110063;28;20028;-86
2023/06/05 03:46:18;;;;;;;1.75;1.08;;;;;;;16.86;78.50;100219.91;5110761;28;20108;-84
2023/06/05 03:48:58;;;;;;;1.25;0.77;;;;;;;16.68;78.42;100186.75;5110969;28;20545;-84
2023/06/05 03:51:29;;;;;;;1.10;0.90;;;;;;;16.63;78.90;100192.22;5108405;28;20083;-86
2023/06/05 03:54:00;;;;;;;1.40;0.70;;;;;;;16.44;79.41;100170.66;5089125;28;20028;-85
2023/06/05 03:56:33;;;;;;;1.45;0.85;;;;;;;16.76;79.11;100227.31;5109994;28;20119;-85
2023/06/05 03:59:08;;;;;;;2.58;1.83;;;;;;;16.79;79.24;100205.91;5106262;28;20030;-85
2023/06/05 04:01:39;;;;;;;1.60;1.02;;;;;;;16.90;79.54;100216.25;5108677;28;20031;-85
2023/06/05 04:04:05;;;;;;;4.43;2.28;;;;;;;16.73;79.37;100160.81;5122401;27;20031;-85
2023/06/05 04:06:32;;;;;;;6.05;2.17;;;;;;;16.83;79.26;100196.91;5110710;27;20441;-86
2023/06/05 04:08:58;;;;;;;6.10;1.30;;;;;;;16.74;78.75;100171.44;5104678;27;20061;-85
2023/06/05 04:11:26;;;;;;;0.98;0.82;;;;;;;16.96;78.85;100205.38;5104301;28;20039;-85
2023/06/05 04:13:53;;;;;;;1.13;1.00;;;;;;;16.82;78.63;100171.19;5090377;28;20024;-85
2023/06/05 04:16:19;;;;;;;2.67;1.52;;;;;;;16.98;77.55;100191.09;5090170;28;20028;-85
2023/06/05 04:18:45;;;;;;;2.28;1.35;;;;;;;16.91;77.84;100184.22;5108004;27;20380;-86
2023/06/05 04:21:10;;;;;;;2.10;1.17;;;;;;;17.10;78.87;100216.47;5114728;27;20040;-84
2023/06/05 04:23:36;;;;;;;1.80;1.58;;;;;;;17.20;78.44;100206.38;5104048;28;20063;-84
2023/06/05 04:26:02;;;;;;;1.13;0.85;;;;;;;17.22;78.26;100199.19;5089671;28;20038;-84
2023/06/05 04:28:29;;;;;;;6.32;1.58;;;;;;;16.99;78.04;100182.19;5089534;28;20031;-85
2023/06/05 04:30:55;;;;;;;1.45;1.10;;;;;;;17.00;78.41;100185.72;5076004;28;20028;-85
2023/06/05 04:33:21;;;;;;;2.00;1.83;;;;;;;17.22;78.51;100198.31;5108406;28;20096;-85
2023/06/05 04:35:47;;;;;;;1.63;0.93;;;;;;;17.57;77.17;100222.88;5109958;28;20488;-86
2023/06/05 04:38:12;;;;;;;1.33;1.10;;;;;;;17.77;76.06;100219.50;5109341;28;20107;-85
2023/06/05 04:40:37;;;;;;;4.18;1.08;;;;;;;18.05;75.25;100214.03;5101208;28;20413;-84
2023/06/05 04:43:03;;;;;;;1.85;1.50;;;;;;;17.80;73.77;100222.91;5100756;28;20039;-87
2023/06/05 04:45:28;;;;;;;1.48;0.82;;;;;;;17.81;73.01;100186.41;5094081;28;20386;-83
2023/06/05 04:47:54;;;;;;;3.20;1.40;;;;;;;17.90;72.47;100178.09;5098531;28;20032;-84
2023/06/05 04:50:26;;;;;;;7.68;1.65;;;;;;;17.81;71.69;100198.00;5097089;28;20040;-81
2023/06/05 04:52:54;;;;;;;1.00;0.98;;;;;;;17.88;70.89;100194.19;5092404;28;20036;-83
2023/06/05 04:55:20;;;;;;;0.55;0.50;;;;;;;18.23;70.42;100220.50;5106166;28;20034;-82
2023/06/05 04:57:48;;;;;;;0.95;0.73;;;;;;;18.20;70.19;100189.44;5111906;28;20211;-84
2023/06/05 05:00:14;;;;;;;3.40;2.03;;;;;;;18.57;69.72;100236.06;5080335;28;20885;-83
2023/06/05 05:02:40;;;;;;;3.58;1.75;;;;;;;18.33;67.95;100211.16;5103223;28;20028;-82
2023/06/05 05:05:06;;;;;;;0.65;0.60;;;;;;;18.70;67.56;100209.72;5088635;28;20100;-81
2023/06/05 05:07:32;;;;;;;5.38;1.50;;;;;;;18.84;66.02;100235.00;5101524;28;20085;-82
2023/06/05 05:09:58;;;;;;;1.08;0.75;;;;;;;18.93;64.61;100223.97;5092526;28;20104;-83
2023/06/05 05:12:23;;;;;;;2.13;1.42;;;;;;;19.11;64.81;100238.41;5096624;28;20035;-82
2023/06/05 05:14:49;;;;;;;1.15;1.00;;;;;;;19.26;64.32;100261.81;5090089;28;20082;-85
2023/06/05 05:17:16;;;;;;;3.05;1.90;;;;;;;19.44;63.70;100254.81;5092800;28;20039;-84
2023/06/05 05:19:42;;;;;;;3.45;1.90;;;;;;;19.38;63.64;100216.75;5099223;28;20055;-85
2023/06/05 05:22:08;;;;;;;1.73;1.27;;;;;;;19.67;63.86;100243.09;5099045;28;20481;-85
2023/06/05 05:24:33;;;;;;;1.83;1.05;;;;;;;19.97;62.65;100232.00;5099947;28;20031;-84
2023/06/05 05:27:00;;;;;;;1.75;1.20;;;;;;;19.96;62.66;100238.31;5094080;28;20448;-86
2023/06/05 05:29:26;;;;;;;2.00;1.08;;;;;;;19.86;62.14;100234.28;5098260;28;20024;-86
2023/06/05 05:31:52;;;;;;;1.08;1.02;;;;;;;20.13;61.16;100256.28;5104797;28;20028;-85
2023/06/05 05:34:18;;;;;;;1.15;1.02;;;;;;;19.95;61.25;100216.94;5098645;28;20037;-85
2023/06/05 05:36:43;;;;;;;1.17;1.13;;;;;;;20.13;63.15;100267.00;5091845;28;20024;-85
2023/06/05 05:39:09;;;;;;;2.05;1.35;;;;;;;20.06;62.27;100252.13;5094643;28;20052;-84
2023/06/05 05:41:35;;;;;;;1.20;0.98;;;;;;;20.15;63.13;100275.81;5094071;28;20044;-85
2023/06/05 05:44:01;;;;;;;3.47;1.20;;;;;;;20.04;62.50;100254.00;5090664;28;20109;-86
2023/06/05 05:46:26;;;;;;;15.85;1.92;;;;;;;19.90;63.14;100251.97;5092381;28;20139;-85
2023/06/05 05:48:52;;;;;;;1.00;0.77;;;;;;;20.25;62.21;100276.28;5082753;28;20036;-86
2023/06/05 05:51:17;;;;;;;1.63;1.20;;;;;;;19.93;63.99;100277.75;5099328;28;20073;-84
2023/06/05 05:53:43;;;;;;;0.70;0.60;;;;;;;20.18;63.42;100253.38;5096298;28;20469;-81
2023/06/05 05:56:08;;;;;;;1.50;1.40;;;;;;;20.60;62.89;100283.59;5091761;28;20465;-83
2023/06/05 05:58:34;;;;;;;1.23;1.10;;;;;;;20.54;61.85;100277.59;5090723;28;20028;-83
2023/06/05 06:01:00;;;;;;;3.55;2.40;;;;;;;20.65;61.53;100276.25;5099535;28;20145;-82
2023/06/05 06:03:29;;;;;;;1.63;1.05;;;;;;;20.78;61.56;100274.72;5092826;28;20034;-83
2023/06/05 06:05:56;;;;;;;3.33;1.88;;;;;;;20.57;62.21;100279.25;5093261;28;20096;-83
2023/06/05 06:08:22;;;;;;;1.30;1.13;;;;;;;20.74;62.19;100284.72;5099147;28;20085;-83
2023/06/05 06:10:47;;;;;;;4.18;1.42;;;;;;;20.51;61.61;100285.78;5103943;28;20035;-83
2023/06/05 06:13:13;;;;;;;1.02;0.90;;;;;;;20.27;62.78;100270.84;5102863;28;20032;-83
2023/06/05 06:15:39;;;;;;;1.88;1.10;;;;;;;20.34;63.01;100256.22;5102771;28;20028;-83
2023/06/05 06:18:07;;;;;;;2.72;1.55;;;;;;;20.52;62.15;100278.59;5103141;28;20027;-82
2023/06/05 06:20:35;;;;;;;3.20;1.88;;;;;;;20.30;63.05;100254.63;5110517;28;20040;-82
2023/06/05 06:23:02;;;;;;;3.25;1.45;;;;;;;20.70;61.49;100263.50;5116874;28;20087;-83
2023/06/05 06:25:31;;;;;;;3.25;1.58;;;;;;;20.54;62.74;100256.16;5137882;28;20012;-84
2023/06/05 06:28:00;;;;;;;2.28;1.50;;;;;;;20.90;61.89;100268.75;5137980;28;20034;-82
2023/06/05 06:30:27;;;;;;;2.47;1.98;;;;;;;20.72;64.04;100267.84;5137995;28;20031;-81
2023/06/05 06:32:56;;;;;;;2.72;1.40;;;;;;;20.90;62.13;100284.00;5137860;28;20023;-84
2023/06/05 06:35:22;;;;;;;2.95;1.90;;;;;;;20.85;62.57;100276.16;5134730;28;20043;-82
2023/06/05 06:37:48;;;;;;;6.18;2.03;;;;;;;21.11;62.80;100284.72;5134016;28;20099;-83
2023/06/05 06:40:14;;;;;;;2.00;1.23;;;;;;;21.10;63.27;100238.28;5100814;28;20108;-83
2023/06/05 06:42:39;;;;;;;2.97;1.95;;;;;;;20.85;65.52;100260.09;5095557;28;20418;-82
2023/06/05 06:45:05;;;;;;;5.57;3.75;;;;;;;21.13;64.24;100282.84;5096694;28;20052;-83
2023/06/05 06:47:31;;;;;;;4.50;2.90;;;;;;;21.54;62.05;100273.69;5110499;27;20023;-83
2023/06/05 06:49:56;;;;;;;7.57;4.07;;;;;;;20.98;62.92;100221.94;5114134;27;20059;-83
2023/06/05 06:52:23;;;;;;;7.60;4.95;;;;;;;21.54;61.06;100234.28;5103909;28;20026;-83
2023/06/05 06:54:49;;;;;;;6.15;3.85;;;;;;;21.71;60.67;100251.34;5102248;28;20085;-83
2023/06/05 06:57:15;;;;;;;4.95;3.15;;;;;;;21.68;62.63;100251.50;5102071;28;20032;-82
2023/06/05 06:59:40;;;;;;;4.03;2.78;;;;;;;21.93;62.01;100251.06;5099538;28;20433;-83
2023/06/05 07:02:09;;;;;;;5.35;2.25;;;;;;;21.67;63.51;100284.66;5097261;28;20405;-82
2023/06/05 07:04:35;;;;;;;4.22;2.60;;;;;;;21.31;65.48;100259.59;5102555;28;20115;-82
2023/06/05 07:07:01;;;;;;;6.43;3.22;;;;;;;21.16;64.97;100246.94;5075208;28;20036;-81
2023/06/05 07:09:26;;;;;;;7.53;2.72;;;;;;;20.98;66.23;100267.53;5094502;28;20036;-82
2023/06/05 07:11:54;;;;;;;4.72;2.63;;;;;;;21.57;63.70;100244.00;5101359;28;20396;-81
2023/06/05 07:14:20;;;;;;;7.18;3.72;;;;;;;21.40;64.45;100266.31;5092052;28;20066;-82
2023/06/05 07:16:45;;;;;;;7.30;4.68;;;;;;;21.16;65.86;100252.31;5092965;28;20029;-83
2023/06/05 07:19:12;;;;;;;5.38;3.58;;;;;;;21.54;65.70;100276.38;5101864;28;20498;-86
2023/06/05 07:21:37;;;;;;;6.47;3.30;;;;;;;21.73;65.42;100252.13;5101786;28;20043;-86
2023/06/05 07:24:04;;;;;;;6.90;2.88;;;;;;;21.62;66.51;100241.94;5090296;28;20024;-86
2023/06/05 07:26:30;;;;;;;7.88;4.72;;;;;;;21.82;65.24;100241.75;5091533;28;20020;-87
2023/06/05 07:28:55;;;;;;;5.53;2.80;;;;;;;22.26;64.27;100264.50;5099041;28;20454;-86
2023/06/05 07:31:21;;;;;;;5.85;2.92;;;;;;;22.65;61.53;100260.56;5096050;28;20032;-87
2023/06/05 07:33:47;;;;;;;5.97;2.85;;;;;;;22.31;63.18;100223.97;5097602;27;20545;-85
2023/06/05 07:36:13;;;;;;;6.40;3.88;;;;;;;22.66;61.55;100256.06;5103332;28;20110;-86
2023/06/05 07:38:39;;;;;;;7.45;3.53;;;;;;;21.93;63.71;100257.28;5091909;28;20052;-87
2023/06/05 07:41:06;;;;;;;8.00;4.45;;;;;;;21.79;64.52;100255.34;5099309;28;20028;-85
2023/06/05 07:43:31;;;;;;;5.20;3.75;;;;;;;22.21;63.48;100258.50;5096147;28;20525;-84
2023/06/05 07:45:57;;;;;;;6.20;3.00;;;;;;;22.32;63.40;100231.94;5097022;28;20032;-85
2023/06/05 07:48:22;;;;;;;6.20;2.88;;;;;;;22.41;62.41;100237.75;5095900;28;20020;-84
2023/06/05 07:50:48;;;;;;;7.82;4.85;;;;;;;22.53;60.50;100239.75;5098351;28;20021;-85
2023/06/05 07:53:13;;;;;;;8.95;3.58;;;;;;;22.47;61.42;100256.22;5074882;28;20470;-84
2023/06/05 07:55:39;;;;;;;6.22;3.50;;;;;;;22.65;62.76;100265.94;5092847;28;20114;-85
2023/06/05 07:58:04;;;;;;;6.03;3.53;;;;;;;22.96;60.92;100240.00;5099060;28;20500;-85
2023/06/05 08:00:30;;;;;;;4.95;2.35;;;;;;;23.63;59.50;100249.56;5090678;28;20024;-85
2023/06/05 08:02:57;;;;;;;7.22;3.08;;;;;;;24.15;58.67;100264.41;5090185;28;20114;-84
2023/06/05 08:05:22;;;;;;;6.68;3.42;;;;;;;23.80;58.03;100227.00;5090321;28;20173;-85
2023/06/05 08:07:48;;;;;;;6.22;3.67;;;;;;;24.69;56.01;100269.94;5089899;28;20028;-85
2023/06/05 08:10:13;;;;;;;5.38;2.35;;;;;;;24.73;55.00;100241.81;5091925;28;20506;-85
2023/06/05 08:12:39;;;;;;;7.38;4.07;;;;;;;24.63;54.74;100235.28;5110088;28;20032;-85
2023/06/05 08:15:06;;;;;;;5.25;2.80;;;;;;;24.82;53.28;100240.34;5110430;28;20040;-86
2023/06/05 08:17:31;;;;;;;6.15;3.20;;;;;;;25.37;54.43;100228.56;5106065;28;20024;-85
2023/06/05 08:19:57;;;;;;;5.22;2.70;;;;;;;24.65;56.00;100214.47;5110570;28;20037;-84
2023/06/05 08:22:23;;;;;;;5.85;3.03;;;;;;;25.38;56.48;100235.69;5110682;28;20066;-85
2023/06/05 08:24:49;;;;;;;5.88;4.10;;;;;;;25.89;52.65;100218.66;5110002;28;20027;-84
2023/06/05 08:27:16;;;;;;;6.47;4.22;;;;;;;26.31;51.01;100194.09;5109934;28;20028;-86
2023/06/05 08:29:41;;;;;;;7.78;3.28;;;;;;;26.91;50.41;100224.00;5107797;28;20039;-85
2023/06/05 08:32:07;;;;;;;12.02;3.97;;;;;;;27.10;49.20;100218.06;5093993;28;20437;-87
2023/06/05 08:34:32;;;;;;;10.05;4.45;;;;;;;27.31;47.71;100208.34;5109116;28;20032;-86
2023/06/05 08:36:58;;;;;;;6.80;4.35;;;;;;;27.39;46.82;100191.50;5108442;27;20027;-86
2023/06/05 08:39:27;;;;;;;8.10;3.47;;;;;;;26.72;48.95;100206.41;5130352;27;20085;-86
2023/06/05 08:41:55;;;;;;;3.85;2.83;;;;;;;26.93;48.30;100193.13;5118477;28;20523;-85
2023/06/05 08:44:21;;;;;;;6.63;3.47;;;;;;;27.06;48.30;100181.38;5097649;28;20450;-85
2023/06/05 08:46:48;;;;;;;4.22;2.75;;;;;;;27.26;46.87;100193.38;5109693;28;20058;-86
2023/06/05 08:49:17;;;;;;;5.70;2.85;;;;;;;27.26;47.22;100163.59;5101205;28;20028;-85
2023/06/05 08:51:44;;;;;;;8.38;3.70;;;;;;;27.05;47.83;100182.34;5095604;28;20051;-85
2023/06/05 08:54:13;;;;;;;4.32;3.08;;;;;;;27.18;46.27;100166.03;5100008;28;20484;-87
2023/06/05 08:56:40;;;;;;;6.47;2.45;;;;;;;27.77;46.21;100190.31;5109373;28;20096;-86
2023/06/05 08:59:08;;;;;;;5.57;3.13;;;;;;;27.51;45.95;100204.09;5109128;28;20092;-86
2023/06/05 09:01:34;;;;;;;5.18;2.95;;;;;;;27.71;44.33;100171.81;5101956;28;20520;-86
2023/06/05 09:03:59;;;;;;;3.60;2.35;;;;;;;27.04;47.18;100159.84;5100705;28;20027;-85
2023/06/05 09:06:25;;;;;;;6.13;3.05;;;;;;;27.16;46.77;100156.19;5102673;28;20024;-86
2023/06/05 09:08:51;;;;;;;5.72;2.88;;;;;;;27.37;46.41;100163.63;5100153;28;20035;-85
2023/06/05 09:11:23;;;;;;;4.80;3.00;;;;;;;27.48;46.65;100189.88;5109027;28;20401;-86
2023/06/05 09:13:50;;;;;;;7.88;3.22;;;;;;;27.53;46.53;100163.31;5108510;28;20039;-85
2023/06/05 09:16:19;;;;;;;5.55;2.85;;;;;;;27.21;46.95;100184.75;5108244;28;20066;-86
2023/06/05 09:18:56;;;;;;;3.33;2.75;;;;;;;27.11;47.23;100171.94;5080968;28;20449;-86
2023/06/05 09:21:28;;;;;;;5.05;2.17;;;;;;;27.21;47.69;100158.53;5086453;28;20115;-86
2023/06/05 09:24:11;;;;;;;4.68;2.20;;;;;;;26.81;47.25;100161.59;5084374;28;20039;-86
2023/06/05 09:26:56;;;;;;;6.38;3.15;;;;;;;26.94;49.16;100183.16;5094753;28;20024;-86
2023/06/05 09:29:25;;;;;;;9.35;3.20;;;;;;;27.37;47.69;100158.22;5097353;28;20459;-91
2023/06/05 09:31:52;;;;;;;5.57;2.30;;;;;;;27.51;48.12;100165.28;5080461;28;20047;-89
2023/06/05 09:34:32;;;;;;;4.65;2.00;;;;;;;27.80;47.87;100154.84;5087021;28;20028;-91
2023/06/05 09:36:59;;;;;;;5.13;2.72;;;;;;;27.95;44.82;100150.06;5106608;28;20111;-90
2023/06/05 09:39:26;;;;;;;4.80;2.05;;;;;;;27.75;45.32;100129.97;5101740;28;20120;-92
2023/06/05 09:41:52;;;;;;;3.25;2.10;;;;;;;27.56;46.04;100095.34;5076730;28;20024;-91
2023/06/05 09:44:19;;;;;;;4.60;3.13;;;;;;;27.44;44.97;100097.19;5081928;28;20130;-91
2023/06/05 09:46:55;;;;;;;1.95;1.17;;;;;;;27.63;44.94;100120.09;5093157;28;20505;-92
2023/06/05 09:49:24;;;;;;;3.80;1.80;;;;;;;27.31;45.86;100112.63;5093009;28;20023;-93
2023/06/05 09:51:49;;;;;;;5.72;1.98;;;;;;;27.23;45.57;100118.66;5112879;28;20023;-89
2023/06/05 09:54:16;;;;;;;2.85;1.52;;;;;;;27.48;45.76;100098.69;5101641;28;20424;-91
2023/06/05 09:56:46;;;;;;;2.97;1.75;;;;;;;27.12;43.18;100115.94;5102316;28;20032;-91
2023/06/05 09:59:16;;;;;;;1.95;1.33;;;;;;;27.85;42.98;100135.50;5100131;28;20517;-88
2023/06/05 10:01:43;;;;;;;2.40;1.38;;;;;;;28.02;42.07;100139.56;5100118;28;20032;-87
2023/06/05 10:04:11;;;;;;;1.23;1.00;;;;;;;27.53;42.84;100122.69;5091933;28;20093;-90
2023/06/05 10:06:37;;;;;;;5.25;1.58;;;;;;;27.49;42.08;100094.09;5083518;27;20039;-84
2023/06/05 10:09:03;;;;;;;2.22;1.35;;;;;;;28.18;41.55;100118.38;5126447;27;20033;-85
2023/06/05 10:11:29;;;;;;;2.13;1.13;;;;;;;28.12;41.22;100113.44;5099462;28;20032;-86
2023/06/05 10:13:59;;;;;;;1.50;1.15;;;;;;;27.82;41.12;100092.38;5077326;28;20059;-87
2023/06/05 10:16:26;;;;;;;4.47;1.55;;;;;;;27.99;41.59;100110.00;5097841;28;20087;-84
2023/06/05 10:18:51;;;;;;;3.60;2.08;;;;;;;28.03;40.89;100125.03;5104979;28;20073;-84
2023/06/05 10:21:18;;;;;;;2.85;1.60;;;;;;;28.11;42.12;100105.44;5092403;28;20454;-85
2023/06/05 10:23:52;;;;;;;1.00;0.85;;;;;;;28.29;42.22;100106.63;5111662;28;20028;-85
2023/06/05 10:26:20;;;;;;;2.78;1.70;;;;;;;27.64;41.65;100106.44;5103728;28;20059;-84
2023/06/05 10:29:33;;;;;;;3.50;1.65;;;;;;;28.27;41.51;100114.03;5097921;28;20404;-84
2023/06/05 10:32:06;;;;;;;2.35;1.50;;;;;;;28.07;41.48;100077.72;5101229;28;20040;-82
2023/06/05 10:35:11;;;;;;;2.15;1.10;;;;;;;27.94;40.40;100107.63;5107289;27;20040;-83
2023/06/05 10:38:04;;;;;;;2.70;1.58;;;;;;;28.23;41.20;100101.72;5093466;28;20036;-83
2023/06/05 10:40:30;;;;;;;1.67;0.90;;;;;;;28.22;39.93;100086.44;5103956;27;20047;-83
2023/06/05 10:43:32;;;;;;;3.95;1.55;;;;;;;28.20;41.15;100085.69;5097818;28;20088;-83
2023/06/05 10:46:00;;;;;;;3.05;0.98;;;;;;;28.01;40.59;100094.50;5091269;28;20421;-84
2023/06/05 10:49:03;;;;;;;2.38;1.33;;;;;;;28.00;38.93;100098.19;5089970;28;20036;-85
2023/06/05 10:51:43;;;;;;;1.90;0.82;;;;;;;28.08;38.65;100103.84;5090612;28;20047;-85
2023/06/05 10:54:11;;;;;;;3.20;1.58;;;;;;;28.23;38.13;100071.88;5075952;28;20409;-83
2023/06/05 10:56:59;;;;;;;1.42;0.98;;;;;;;28.62;36.69;100093.97;5090547;28;20097;-84
2023/06/05 10:59:26;;;;;;;1.38;1.13;;;;;;;28.20;37.38;100067.56;5101888;28;20103;-83
2023/06/05 11:02:16;;;;;;;3.03;1.30;;;;;;;27.92;39.63;100085.22;5110873;28;20485;-83
2023/06/05 11:04:46;;;;;;;2.75;1.65;;;;;;;28.08;39.28;100084.84;5098500;28;20032;-83
2023/06/05 11:07:18;;;;;;;1.85;1.25;;;;;;;27.84;39.04;100047.91;5094203;28;20042;-83
2023/06/05 11:10:02;;;;;;;4.15;2.20;;;;;;;28.22;37.47;100073.75;5096041;28;20113;-82
2023/06/05 11:12:50;;;;;;;4.90;1.23;;;;;;;28.57;36.73;100060.91;5088124;28;20036;-82
2023/06/05 11:15:36;;;;;;;0.95;0.55;;;;;;;28.51;37.23;100069.56;5088208;28;20060;-83
2023/06/05 11:18:30;;;;;;;1.88;0.85;;;;;;;28.13;36.57;100077.22;5091123;28;20036;-82
2023/06/05 11:20:57;;;;;;;2.72;1.60;;;;;;;28.00;35.82;100063.78;5090378;28;20031;-82
2023/06/05 11:23:27;;;;;;;1.17;0.73;;;;;;;27.98;35.55;100043.25;5089860;28;20028;-82
2023/06/05 11:25:56;;;;;;;2.58;1.13;;;;;;;28.64;36.16;100059.44;5090242;28;20459;-83
2023/06/05 11:28:44;;;;;;;2.00;1.15;;;;;;;28.67;37.30;100028.44;5072777;28;20488;-82